createdAt,value
2023-03-28T00:02:10.461Z,1.87
2023-03-28T00:04:42.423Z,1.76
2023-03-28T00:07:15.234Z,1.75
2023-03-28T00:09:48.716Z,1.79
2023-03-28T00:12:21.178Z,1.73
2023-03-28T00:14:52.975Z,1.76
2023-03-28T00:17:25.126Z,1.79
2023-03-28T00:19:57.080Z,1.75
2023-03-28T00:22:30.499Z,1.74
2023-03-28T00:25:03.103Z,1.76
2023-03-28T00:27:35.794Z,1.82
2023-03-28T00:30:11.565Z,1.81
2023-03-28T00:32:43.478Z,1.84
2023-03-28T00:35:15.822Z,1.85
2023-03-28T00:37:51.550Z,1.81
2023-03-28T00:40:24.134Z,1.83
2023-03-28T00:42:56.521Z,1.85
2023-03-28T00:45:28.836Z,1.77
2023-03-28T00:48:03.526Z,1.81
2023-03-28T00:50:38.580Z,1.70
2023-03-28T00:53:16.562Z,1.70
2023-03-28T00:55:50.941Z,1.73
2023-03-28T00:58:27.580Z,1.84
2023-03-28T01:01:00.669Z,1.87
2023-03-28T01:03:35.710Z,1.91
2023-03-28T01:06:12.639Z,1.89
2023-03-28T01:08:47.515Z,1.93
2023-03-28T01:11:20.686Z,1.98
2023-03-28T01:13:55.369Z,1.90
2023-03-28T01:16:32.650Z,1.86
2023-03-28T01:19:03.708Z,1.85
2023-03-28T01:22:06.552Z,1.78
2023-03-28T01:25:02.881Z,1.76
2023-03-28T01:27:41.293Z,1.82
2023-03-28T01:30:36.839Z,1.83
2023-03-28T01:34:08.077Z,1.77
2023-03-28T01:37:01.568Z,1.73
2023-03-28T01:39:47.861Z,1.63
2023-03-28T01:42:30.984Z,1.61
2023-03-28T01:45:16.825Z,1.52
2023-03-28T01:47:59.381Z,1.45
2023-03-28T01:50:38.165Z,1.48
2023-03-28T01:53:18.714Z,1.52
2023-03-28T01:55:58.073Z,1.48
2023-03-28T01:58:44.256Z,1.44
2023-03-28T02:01:26.449Z,1.38
2023-03-28T02:04:07.000Z,1.46
2023-03-28T02:07:02.302Z,1.47
2023-03-28T02:09:43.802Z,1.53
2023-03-28T02:12:44.486Z,1.58
2023-03-28T02:15:33.550Z,1.54
2023-03-28T02:18:31.650Z,1.45
2023-03-28T02:21:26.554Z,1.48
2023-03-28T02:24:17.476Z,1.55
2023-03-28T02:27:12.743Z,1.56
2023-03-28T02:29:55.627Z,1.53
2023-03-28T02:32:35.708Z,1.51
2023-03-28T02:35:09.724Z,1.52
2023-03-28T02:37:50.468Z,1.50
2023-03-28T02:40:42.802Z,1.56
2023-03-28T02:43:35.764Z,1.51
2023-03-28T02:46:13.690Z,1.44
2023-03-28T02:49:11.286Z,1.40
2023-03-28T02:51:50.716Z,1.39
2023-03-28T02:54:32.555Z,1.26
2023-03-28T02:57:36.608Z,1.32
2023-03-28T03:00:16.687Z,1.27
2023-03-28T03:02:52.812Z,1.30
2023-03-28T03:05:24.810Z,1.23
2023-03-28T03:07:56.990Z,1.23
2023-03-28T03:10:28.865Z,1.27
2023-03-28T03:13:00.927Z,1.35
2023-03-28T03:15:31.820Z,1.29
2023-03-28T03:18:04.552Z,1.29
2023-03-28T03:20:37.343Z,1.32
2023-03-28T03:23:09.510Z,1.29
2023-03-28T03:25:43.307Z,1.25
2023-03-28T03:28:23.435Z,1.24
2023-03-28T03:30:54.578Z,1.19
2023-03-28T03:33:50.788Z,1.23
2023-03-28T03:36:27.092Z,1.25
2023-03-28T03:38:59.103Z,1.23
2023-03-28T03:41:31.466Z,1.20
2023-03-28T03:44:03.692Z,1.28
2023-03-28T03:46:36.690Z,1.26
2023-03-28T03:49:09.550Z,1.26
2023-03-28T03:51:41.521Z,1.30
2023-03-28T03:54:13.367Z,1.30
2023-03-28T03:56:45.359Z,1.22
2023-03-28T03:59:18.382Z,1.19
2023-03-28T04:01:51.386Z,1.24
2023-03-28T04:04:45.786Z,1.18
2023-03-28T04:07:28.274Z,1.21
2023-03-28T04:09:59.619Z,1.18
2023-03-28T04:12:33.021Z,1.17
2023-03-28T04:15:05.226Z,1.11
2023-03-28T04:17:57.254Z,1.18
2023-03-28T04:20:31.720Z,1.14
2023-03-28T04:23:13.409Z,1.12
2023-03-28T04:25:45.443Z,1.06
2023-03-28T04:28:25.012Z,1.05
2023-03-28T04:31:02.753Z,1.00
2023-03-28T04:34:13.724Z,0.97
2023-03-28T04:36:57.511Z,0.92
2023-03-28T04:39:30.777Z,0.91
2023-03-28T04:42:12.556Z,0.96
2023-03-28T04:45:03.737Z,0.87
2023-03-28T04:47:37.545Z,0.88
2023-03-28T04:50:13.003Z,0.92
2023-03-28T04:52:45.550Z,1.00
2023-03-28T04:55:17.546Z,1.01
2023-03-28T04:57:50.711Z,0.92
2023-03-28T05:00:25.638Z,0.90
2023-03-28T05:03:14.568Z,0.83
2023-03-28T05:05:55.444Z,0.83
2023-03-28T05:08:29.301Z,0.77
2023-03-28T05:11:05.302Z,0.81
2023-03-28T05:13:40.580Z,0.75
2023-03-28T05:16:19.328Z,0.78
2023-03-28T05:19:10.047Z,0.82
2023-03-28T05:22:04.884Z,0.77
2023-03-28T05:24:37.008Z,0.80
2023-03-28T05:27:15.671Z,0.90
2023-03-28T05:29:47.640Z,0.96
2023-03-28T05:32:19.756Z,0.99
2023-03-28T05:34:51.735Z,1.09
2023-03-28T05:37:23.770Z,1.14
2023-03-28T05:40:00.954Z,1.09
2023-03-28T05:42:33.430Z,1.09
2023-03-28T05:45:09.147Z,1.11
2023-03-28T05:47:42.317Z,1.15
2023-03-28T05:50:14.418Z,1.23
2023-03-28T05:52:46.489Z,1.15
2023-03-28T05:55:18.534Z,1.21
2023-03-28T05:57:50.552Z,1.20
2023-03-28T06:00:24.454Z,1.23
2023-03-28T06:02:57.922Z,1.17
2023-03-28T06:05:36.540Z,1.21
2023-03-28T06:08:14.063Z,1.23
2023-03-28T06:10:46.589Z,1.18
2023-03-28T06:13:24.920Z,1.25
2023-03-28T06:15:57.382Z,1.33
2023-03-28T06:18:35.697Z,1.28
2023-03-28T06:21:09.307Z,1.26
2023-03-28T06:23:41.301Z,1.26
2023-03-28T06:26:21.791Z,1.27
2023-03-28T06:28:53.644Z,1.30
2023-03-28T06:31:38.552Z,1.34
2023-03-28T06:34:10.651Z,1.27
2023-03-28T06:36:51.090Z,1.29
2023-03-28T06:39:23.093Z,1.29
2023-03-28T06:42:02.468Z,1.42
2023-03-28T06:44:40.713Z,1.52
2023-03-28T06:47:29.599Z,1.54
2023-03-28T06:50:02.545Z,1.63
2023-03-28T06:52:44.837Z,1.72
2023-03-28T06:55:16.741Z,1.85
2023-03-28T06:57:49.152Z,1.92
2023-03-28T07:00:35.449Z,1.90
2023-03-28T07:03:33.707Z,1.92
2023-03-28T07:06:09.606Z,1.90
2023-03-28T07:08:41.723Z,2.06
2023-03-28T07:11:13.923Z,2.10
2023-03-28T07:13:46.466Z,2.12
2023-03-28T07:16:19.511Z,2.08
2023-03-28T07:18:51.407Z,2.07
2023-03-28T07:21:30.912Z,2.07
2023-03-28T07:24:04.585Z,2.14
2023-03-28T07:29:41.002Z,2.06
2023-03-28T07:32:13.313Z,2.08
2023-03-28T07:34:45.800Z,2.20
2023-03-28T07:37:22.922Z,2.25
2023-03-28T07:40:30.253Z,2.14
2023-03-28T07:43:02.641Z,2.02
2023-03-28T07:45:34.804Z,2.01
2023-03-28T07:48:08.124Z,1.93
2023-03-28T07:50:41.269Z,1.88
2023-03-28T07:53:13.714Z,1.90
2023-03-28T07:55:54.375Z,1.90
2023-03-28T07:58:29.203Z,1.88
2023-03-28T08:01:08.769Z,1.96
2023-03-28T08:03:47.178Z,1.92
2023-03-28T08:06:31.593Z,1.77
2023-03-28T08:09:06.497Z,1.58
2023-03-28T08:11:49.813Z,1.37
2023-03-28T08:14:20.320Z,1.30
2023-03-28T08:16:53.859Z,1.16
2023-03-28T08:19:26.050Z,1.17
2023-03-28T08:22:17.216Z,1.08
2023-03-28T08:24:53.618Z,0.86
2023-03-28T08:27:27.134Z,0.71
2023-03-28T08:30:02.816Z,0.53
2023-03-28T08:32:35.858Z,0.51
2023-03-28T08:35:07.633Z,0.46
2023-03-28T08:37:39.693Z,0.54
2023-03-28T08:40:16.285Z,0.71
2023-03-28T08:42:58.243Z,0.83
2023-03-28T08:45:43.044Z,0.98
2023-03-28T08:48:20.605Z,0.93
2023-03-28T08:50:59.535Z,0.92
2023-03-28T08:53:37.518Z,0.84
2023-03-28T08:56:15.409Z,0.77
2023-03-28T08:58:56.230Z,0.88
2023-03-28T09:01:32.740Z,0.99
2023-03-28T09:04:05.605Z,1.04
2023-03-28T09:06:39.966Z,1.12
2023-03-28T09:09:34.269Z,1.10
2023-03-28T09:12:47.251Z,1.20
2023-03-28T09:15:35.120Z,1.31
2023-03-28T09:18:44.697Z,1.50
2023-03-28T09:21:25.987Z,1.85
2023-03-28T09:24:27.203Z,1.92
2023-03-28T09:27:25.324Z,1.95
2023-03-28T09:30:01.839Z,1.98
2023-03-28T09:32:39.989Z,1.97
2023-03-28T09:35:18.695Z,1.93
2023-03-28T09:37:54.238Z,1.80
2023-03-28T09:40:29.364Z,1.82
2023-03-28T09:43:46.070Z,1.70
2023-03-28T09:46:30.134Z,1.59
2023-03-28T09:49:23.851Z,1.71
2023-03-28T09:52:17.421Z,1.88
2023-03-28T09:54:49.768Z,2.00
2023-03-28T09:57:21.943Z,2.18
2023-03-28T10:00:07.419Z,2.35
2023-03-28T10:02:55.302Z,2.48
2023-03-28T10:05:38.591Z,2.31
2023-03-28T10:08:27.811Z,2.18
2023-03-28T10:11:14.591Z,2.19
2023-03-28T10:13:49.908Z,2.34
2023-03-28T10:16:27.343Z,2.34
2023-03-28T10:19:06.431Z,2.26
2023-03-28T10:22:13.257Z,2.14
2023-03-28T10:24:51.028Z,2.07
2023-03-28T10:27:27.707Z,2.03
2023-03-28T10:30:09.446Z,2.04
2023-03-28T10:32:42.519Z,2.16
2023-03-28T10:35:30.967Z,2.43
2023-03-28T10:38:18.213Z,2.59
2023-03-28T10:41:10.903Z,2.76
2023-03-28T10:43:58.237Z,2.74
2023-03-28T10:46:45.245Z,2.59
2023-03-28T10:49:24.381Z,2.78
2023-03-28T10:52:01.917Z,2.79
2023-03-28T10:54:51.737Z,2.78
2023-03-28T10:57:42.052Z,3.08
2023-03-28T11:00:21.262Z,3.23
2023-03-28T11:03:18.640Z,3.47
2023-03-28T11:06:08.781Z,3.67
2023-03-28T11:08:55.245Z,3.32
2023-03-28T11:11:48.773Z,3.03
2023-03-28T11:14:33.785Z,3.01
2023-03-28T11:17:14.049Z,2.86
2023-03-28T11:20:26.997Z,2.76
2023-03-28T11:23:31.333Z,2.52
2023-03-28T11:26:40.153Z,2.03
2023-03-28T11:29:43.466Z,1.65
2023-03-28T11:32:22.942Z,1.68
2023-03-28T11:35:15.036Z,2.07
2023-03-28T11:37:56.924Z,2.51
2023-03-28T11:40:36.380Z,2.89
2023-03-28T11:43:14.662Z,3.18
2023-03-28T11:45:53.346Z,3.31
2023-03-28T11:48:36.474Z,3.42
2023-03-28T11:51:16.205Z,3.76
2023-03-28T11:54:00.007Z,4.07
2023-03-28T11:56:44.727Z,4.29
2023-03-28T11:59:26.444Z,4.44
2023-03-28T12:02:08.630Z,4.32
2023-03-28T12:04:49.348Z,4.17
2023-03-28T12:07:27.140Z,4.25
2023-03-28T12:10:08.145Z,4.26
2023-03-28T12:12:52.125Z,4.29
2023-03-28T12:15:28.505Z,4.22
2023-03-28T12:18:19.510Z,4.16
2023-03-28T12:21:00.665Z,4.26
2023-03-28T12:23:59.484Z,4.32
2023-03-28T12:27:05.751Z,4.13
2023-03-28T12:29:46.421Z,4.07
2023-03-28T12:32:38.129Z,3.93
2023-03-28T12:35:19.656Z,3.98
2023-03-28T12:38:06.662Z,4.32
2023-03-28T12:40:54.893Z,4.32
2023-03-28T12:43:37.519Z,4.18
2023-03-28T12:46:13.461Z,4.31
2023-03-28T12:48:49.348Z,4.48
2023-03-28T12:51:27.670Z,4.44
2023-03-28T12:54:24.435Z,4.42
2023-03-28T12:57:06.302Z,4.67
2023-03-28T13:00:16.477Z,4.51
2023-03-28T13:03:34.102Z,4.38
2023-03-28T13:06:23.691Z,4.47
2023-03-28T13:09:14.068Z,4.42
2023-03-28T13:11:56.520Z,4.24
2023-03-28T13:14:36.357Z,4.11
2023-03-28T13:17:21.663Z,4.19
2023-03-28T13:19:55.932Z,4.50
2023-03-28T13:22:32.273Z,4.67
2023-03-28T13:25:27.588Z,4.72
2023-03-28T13:28:22.542Z,4.80
2023-03-28T13:31:13.478Z,4.97
2023-03-28T13:33:49.771Z,4.74
2023-03-28T13:36:28.169Z,4.57
2023-03-28T13:39:26.646Z,4.72
2023-03-28T13:42:04.555Z,4.97
2023-03-28T13:44:46.178Z,4.98
2023-03-28T13:47:23.301Z,4.95
2023-03-28T13:50:02.484Z,4.93
2023-03-28T13:52:34.946Z,4.72
2023-03-28T13:55:20.647Z,4.90
2023-03-28T13:57:53.971Z,5.27
2023-03-28T14:00:28.852Z,5.24
2023-03-28T14:03:16.432Z,5.15
2023-03-28T14:05:50.371Z,5.37
2023-03-28T14:08:26.555Z,5.41
2023-03-28T14:11:17.580Z,5.49
2023-03-28T14:14:25.931Z,5.58
2023-03-28T14:16:59.607Z,5.72
2023-03-28T14:19:40.257Z,5.71
2023-03-28T14:22:19.590Z,5.85
2023-03-28T14:24:57.876Z,5.86
2023-03-28T14:27:37.778Z,5.91
2023-03-28T14:30:21.009Z,5.87
2023-03-28T14:32:59.944Z,5.91
2023-03-28T14:35:34.368Z,5.71
2023-03-28T14:38:08.243Z,5.36
2023-03-28T14:40:42.090Z,5.18
2023-03-28T14:43:27.291Z,5.38
2023-03-28T14:46:03.116Z,5.29
2023-03-28T14:48:36.852Z,5.33
2023-03-28T14:51:12.580Z,5.46
2023-03-28T14:53:47.653Z,5.65
2023-03-28T14:56:24.444Z,5.88
2023-03-28T14:59:00.447Z,6.10
2023-03-28T15:01:34.446Z,6.03
2023-03-28T15:04:09.236Z,5.81
2023-03-28T15:06:41.648Z,5.89
2023-03-28T15:09:28.606Z,6.11
2023-03-28T15:12:05.235Z,6.14
2023-03-28T15:14:43.054Z,6.37
2023-03-28T15:17:21.583Z,6.63
2023-03-28T15:19:58.691Z,6.72
2023-03-28T15:22:33.375Z,6.86
2023-03-28T15:25:05.814Z,6.85
2023-03-28T15:27:38.213Z,6.60
2023-03-28T15:30:17.611Z,6.61
2023-03-28T15:32:50.930Z,6.29
2023-03-28T15:35:32.364Z,6.47
2023-03-28T15:38:09.817Z,6.31
2023-03-28T15:40:43.780Z,6.31
2023-03-28T15:43:38.790Z,6.31
2023-03-28T15:46:16.441Z,6.39
2023-03-28T15:48:48.983Z,6.38
2023-03-28T15:51:24.684Z,6.35
2023-03-28T15:53:58.920Z,6.24
2023-03-28T15:56:33.958Z,6.09
2023-03-28T15:59:18.696Z,5.88
2023-03-28T16:01:51.285Z,5.62
2023-03-28T16:04:29.056Z,5.51
2023-03-28T16:07:13.601Z,5.44
2023-03-28T16:09:46.650Z,5.43
2023-03-28T16:12:19.600Z,5.39
2023-03-28T16:15:12.478Z,5.31
2023-03-28T16:17:49.658Z,5.22
2023-03-28T16:20:42.878Z,5.13
2023-03-28T16:23:16.378Z,5.08
2023-03-28T16:25:48.495Z,4.96
2023-03-28T16:28:20.643Z,4.94
2023-03-28T16:30:53.433Z,4.88
2023-03-28T16:33:25.893Z,4.84
2023-03-28T16:35:57.969Z,4.77
2023-03-28T16:38:30.288Z,4.76
2023-03-28T16:41:02.336Z,4.67
2023-03-28T16:43:34.217Z,4.53
2023-03-28T16:46:07.137Z,4.49
2023-03-28T16:48:39.230Z,4.44
2023-03-28T16:51:11.207Z,4.51
2023-03-28T16:53:44.140Z,4.43
2023-03-28T16:56:17.470Z,4.36
2023-03-28T16:58:49.861Z,4.31
2023-03-28T17:01:22.945Z,4.23
2023-03-28T17:03:55.681Z,4.17
2023-03-28T17:06:28.096Z,4.12
2023-03-28T17:09:00.390Z,4.04
2023-03-28T17:11:32.863Z,4.03
2023-03-28T17:14:04.785Z,3.99
2023-03-28T17:16:40.330Z,3.93
2023-03-28T17:19:12.582Z,3.86
2023-03-28T17:21:44.847Z,3.87
2023-03-28T17:24:16.694Z,3.81
2023-03-28T17:26:49.078Z,3.82
2023-03-28T17:29:21.374Z,3.74
2023-03-28T17:31:53.795Z,3.70
2023-03-28T17:34:26.135Z,3.67
2023-03-28T17:36:58.386Z,3.66
2023-03-28T17:39:32.634Z,3.68
2023-03-28T17:42:09.124Z,3.62
2023-03-28T17:44:41.514Z,3.65
2023-03-28T17:47:13.606Z,3.57
2023-03-28T17:49:45.578Z,3.51
2023-03-28T17:52:17.817Z,3.52
2023-03-28T17:54:51.605Z,3.48
2023-03-28T17:57:24.439Z,3.46
2023-03-28T17:59:56.296Z,3.42
2023-03-28T18:02:28.950Z,3.42
2023-03-28T18:05:10.374Z,3.39
2023-03-28T18:07:43.586Z,3.37
2023-03-28T18:10:16.500Z,3.45
2023-03-28T18:12:48.414Z,3.39
2023-03-28T18:15:21.872Z,3.35
2023-03-28T18:17:53.844Z,3.24
2023-03-28T18:20:26.422Z,3.22
2023-03-28T18:22:58.652Z,3.20
2023-03-28T18:25:34.094Z,3.11
2023-03-28T18:28:06.592Z,3.13
2023-03-28T18:30:40.508Z,3.09
2023-03-28T18:33:12.679Z,3.00
2023-03-28T18:35:44.000Z,2.98
2023-03-28T18:38:16.611Z,3.00
2023-03-28T18:40:54.472Z,3.02
2023-03-28T18:43:27.076Z,3.09
2023-03-28T18:46:00.934Z,3.04
2023-03-28T18:48:34.337Z,3.00
2023-03-28T18:51:06.224Z,2.96
2023-03-28T18:53:38.879Z,2.90
2023-03-28T18:56:13.486Z,2.88
2023-03-28T18:58:49.018Z,2.89
2023-03-28T19:01:23.176Z,2.82
2023-03-28T19:03:55.741Z,2.86
2023-03-28T19:06:28.816Z,2.78
2023-03-28T19:09:05.344Z,2.68
2023-03-28T19:11:37.318Z,2.71
2023-03-28T19:14:09.497Z,2.63
2023-03-28T19:16:41.812Z,2.64
2023-03-28T19:19:14.194Z,2.61
2023-03-28T19:21:44.913Z,2.57
2023-03-28T19:24:17.058Z,2.42
2023-03-28T19:26:49.547Z,2.47
2023-03-28T19:29:21.734Z,2.44
2023-03-28T19:31:53.788Z,2.40
2023-03-28T19:34:25.897Z,2.45
2023-03-28T19:36:58.202Z,2.41
2023-03-28T19:39:30.629Z,2.38
2023-03-28T19:42:02.451Z,2.40
2023-03-28T19:44:34.309Z,2.28
2023-03-28T19:47:06.993Z,2.29
2023-03-28T19:49:40.046Z,2.28
2023-03-28T19:52:12.248Z,2.33
2023-03-28T19:54:44.297Z,2.34
2023-03-28T19:57:16.362Z,2.25
2023-03-28T19:59:48.307Z,2.10
2023-03-28T20:02:20.338Z,1.96
2023-03-28T20:04:52.520Z,1.97
2023-03-28T20:07:24.695Z,1.99
2023-03-28T20:09:56.583Z,1.96
2023-03-28T20:12:28.579Z,1.90
2023-03-28T20:15:00.753Z,1.92
2023-03-28T20:17:32.854Z,1.80
2023-03-28T20:20:10.433Z,1.62
2023-03-28T20:22:42.314Z,1.52
2023-03-28T20:25:14.780Z,1.50
2023-03-28T20:27:47.743Z,1.36
2023-03-28T20:30:20.438Z,1.37
2023-03-28T20:32:51.890Z,1.48
2023-03-28T20:35:23.879Z,1.54
2023-03-28T20:37:56.062Z,1.44
2023-03-28T20:40:28.139Z,1.44
2023-03-28T20:43:02.014Z,1.42
2023-03-28T20:45:35.964Z,1.43
2023-03-28T20:48:11.146Z,1.38
2023-03-28T20:50:44.195Z,1.37
2023-03-28T20:53:16.425Z,1.38
2023-03-28T20:55:48.774Z,1.35
2023-03-28T20:58:21.854Z,1.40
2023-03-28T21:00:58.331Z,1.44
2023-03-28T21:03:46.795Z,1.32
2023-03-28T21:06:21.467Z,1.18
2023-03-28T21:08:56.089Z,0.99
2023-03-28T21:11:30.548Z,1.00
2023-03-28T21:14:04.085Z,1.05
2023-03-28T21:16:37.853Z,1.11
2023-03-28T21:19:10.254Z,1.12
2023-03-28T21:21:42.074Z,1.10
2023-03-28T21:24:13.923Z,0.92
2023-03-28T21:26:45.991Z,0.85
2023-03-28T21:29:17.982Z,0.77
2023-03-28T21:31:50.020Z,0.84
2023-03-28T21:34:33.934Z,0.98
2023-03-28T21:37:06.635Z,0.88
2023-03-28T21:39:38.779Z,0.92
2023-03-28T21:42:10.715Z,0.77
2023-03-28T21:44:43.082Z,0.66
2023-03-28T21:47:14.900Z,0.60
2023-03-28T21:49:49.360Z,0.52
2023-03-28T21:52:21.452Z,0.49
2023-03-28T21:54:53.314Z,0.46
2023-03-28T21:57:25.622Z,0.47
2023-03-28T21:59:57.444Z,0.59
2023-03-28T22:02:29.535Z,0.75
2023-03-28T22:05:01.748Z,0.65
2023-03-28T22:07:33.902Z,0.55
2023-03-28T22:10:07.057Z,0.62
2023-03-28T22:12:44.899Z,0.52
2023-03-28T22:15:16.823Z,0.57
2023-03-28T22:17:48.693Z,0.71
2023-03-28T22:20:22.379Z,0.86
2023-03-28T22:22:54.634Z,0.93
2023-03-28T22:25:26.514Z,1.06
2023-03-28T22:27:59.501Z,1.12
2023-03-28T22:30:31.723Z,1.16
2023-03-28T22:33:04.237Z,1.21
2023-03-28T22:35:34.924Z,1.24
2023-03-28T22:38:07.194Z,1.26
2023-03-28T22:40:39.072Z,1.28
2023-03-28T22:43:11.739Z,1.29
2023-03-28T22:45:43.699Z,1.30
2023-03-28T22:48:16.087Z,1.31
2023-03-28T22:50:48.658Z,1.29
2023-03-28T22:53:23.683Z,1.33
2023-03-28T22:55:57.704Z,1.34
2023-03-28T22:58:30.141Z,1.33
2023-03-28T23:01:03.458Z,1.34
2023-03-28T23:03:35.632Z,1.27
2023-03-28T23:06:08.581Z,1.28
2023-03-28T23:08:41.130Z,1.32
2023-03-28T23:11:13.013Z,1.31
2023-03-28T23:13:44.914Z,1.04
2023-03-28T23:16:16.993Z,0.83
2023-03-28T23:18:49.942Z,0.83
2023-03-28T23:21:23.141Z,0.94
2023-03-28T23:23:55.693Z,1.03
2023-03-28T23:26:27.747Z,1.10
2023-03-28T23:28:59.570Z,1.16
2023-03-28T23:31:31.530Z,1.07
2023-03-28T23:34:03.488Z,0.94
2023-03-28T23:36:35.717Z,0.88
2023-03-28T23:39:08.048Z,0.82
2023-03-28T23:41:39.929Z,0.67
2023-03-28T23:44:12.103Z,0.63
2023-03-28T23:46:43.925Z,0.59
2023-03-28T23:49:15.749Z,0.68
2023-03-28T23:51:47.591Z,0.64
2023-03-28T23:54:19.809Z,0.51
2023-03-28T23:56:51.686Z,0.38
2023-03-28T23:59:25.272Z,0.45
